sensor_id;sensor_type;location;lat;lon;timestamp;temperature;humidity
23079;DHT22;11707;50.830;4.364;2023-02-28T00:01:41;2.40;1.00
23079;DHT22;11707;50.830;4.364;2023-02-28T00:04:07;2.30;1.00
23079;DHT22;11707;50.830;4.364;2023-02-28T00:06:34;2.40;1.00
23079;DHT22;11707;50.830;4.364;2023-02-28T00:09:02;2.40;1.00
23079;DHT22;11707;50.830;4.364;2023-02-28T00:11:28;2.30;1.00
23079;DHT22;11707;50.830;4.364;2023-02-28T00:13:53;2.30;1.00
23079;DHT22;11707;50.830;4.364;2023-02-28T00:16:21;2.30;1.00
23079;DHT22;11707;50.830;4.364;2023-02-28T00:18:48;2.50;1.00
23079;DHT22;11707;50.830;4.364;2023-02-28T00:21:14;2.50;1.00
23079;DHT22;11707;50.830;4.364;2023-02-28T00:23:40;2.50;1.00
23079;DHT22;11707;50.830;4.364;2023-02-28T00:26:06;2.50;1.00
23079;DHT22;11707;50.830;4.364;2023-02-28T00:28:31;2.50;1.00
23079;DHT22;11707;50.830;4.364;2023-02-28T00:30:57;2.50;1.00
23079;DHT22;11707;50.830;4.364;2023-02-28T00:33:28;2.50;1.00
23079;DHT22;11707;50.830;4.364;2023-02-28T00:36:05;2.50;1.00
23079;DHT22;11707;50.830;4.364;2023-02-28T00:38:32;2.50;1.00
23079;DHT22;11707;50.830;4.364;2023-02-28T00:40:58;2.40;1.00
23079;DHT22;11707;50.830;4.364;2023-02-28T00:43:30;2.40;1.00
23079;DHT22;11707;50.830;4.364;2023-02-28T00:45:58;2.40;1.00
23079;DHT22;11707;50.830;4.364;2023-02-28T00:48:24;2.50;1.00
23079;DHT22;11707;50.830;4.364;2023-02-28T00:50:49;2.30;1.00
23079;DHT22;11707;50.830;4.364;2023-02-28T00:53:15;2.30;1.00
23079;DHT22;11707;50.830;4.364;2023-02-28T00:55:43;2.20;1.00
23079;DHT22;11707;50.830;4.364;2023-02-28T00:58:09;2.00;1.00
23079;DHT22;11707;50.830;4.364;2023-02-28T01:00:35;2.10;1.00
23079;DHT22;11707;50.830;4.364;2023-02-28T01:03:01;2.00;1.00
23079;DHT22;11707;50.830;4.364;2023-02-28T01:05:26;2.10;1.00
23079;DHT22;11707;50.830;4.364;2023-02-28T01:07:52;2.00;1.00
23079;DHT22;11707;50.830;4.364;2023-02-28T01:10:21;1.90;1.00
23079;DHT22;11707;50.830;4.364;2023-02-28T01:12:48;2.00;1.00
23079;DHT22;11707;50.830;4.364;2023-02-28T01:15:14;1.90;1.00
23079;DHT22;11707;50.830;4.364;2023-02-28T01:17:40;1.80;1.00
23079;DHT22;11707;50.830;4.364;2023-02-28T01:20:06;1.80;1.00
23079;DHT22;11707;50.830;4.364;2023-02-28T01:22:34;1.70;1.00
23079;DHT22;11707;50.830;4.364;2023-02-28T01:25:03;1.70;1.00
23079;DHT22;11707;50.830;4.364;2023-02-28T01:27:29;1.80;1.00
23079;DHT22;11707;50.830;4.364;2023-02-28T01:29:54;1.80;1.00
23079;DHT22;11707;50.830;4.364;2023-02-28T01:32:20;1.90;1.00
23079;DHT22;11707;50.830;4.364;2023-02-28T01:34:46;1.90;1.00
23079;DHT22;11707;50.830;4.364;2023-02-28T01:37:12;1.90;1.00
23079;DHT22;11707;50.830;4.364;2023-02-28T01:39:38;2.00;1.00
23079;DHT22;11707;50.830;4.364;2023-02-28T01:42:09;2.00;1.00
23079;DHT22;11707;50.830;4.364;2023-02-28T01:47:39;2.10;1.00
23079;DHT22;11707;50.830;4.364;2023-02-28T01:50:11;2.00;1.00
23079;DHT22;11707;50.830;4.364;2023-02-28T01:52:42;1.90;1.00
23079;DHT22;11707;50.830;4.364;2023-02-28T01:55:10;1.80;1.00
23079;DHT22;11707;50.830;4.364;2023-02-28T01:57:43;1.90;1.00
23079;DHT22;11707;50.830;4.364;2023-02-28T02:00:13;1.90;1.00
23079;DHT22;11707;50.830;4.364;2023-02-28T02:02:45;1.80;1.00
23079;DHT22;11707;50.830;4.364;2023-02-28T02:05:21;1.80;1.00
23079;DHT22;11707;50.830;4.364;2023-02-28T02:07:51;1.80;1.00
23079;DHT22;11707;50.830;4.364;2023-02-28T02:13:14;1.80;1.00
23079;DHT22;11707;50.830;4.364;2023-02-28T02:18:43;1.60;1.00
23079;DHT22;11707;50.830;4.364;2023-02-28T02:29:25;1.60;1.00
23079;DHT22;11707;50.830;4.364;2023-02-28T02:37:24;1.40;1.00
23079;DHT22;11707;50.830;4.364;2023-02-28T02:43:02;1.40;1.00
23079;DHT22;11707;50.830;4.364;2023-02-28T02:45:42;1.30;1.00
23079;DHT22;11707;50.830;4.364;2023-02-28T02:48:17;1.40;1.00
23079;DHT22;11707;50.830;4.364;2023-02-28T02:50:54;1.50;1.00
23079;DHT22;11707;50.830;4.364;2023-02-28T02:53:26;1.50;1.00
23079;DHT22;11707;50.830;4.364;2023-02-28T02:55:58;1.40;1.00
23079;DHT22;11707;50.830;4.364;2023-02-28T02:58:29;1.50;1.00
23079;DHT22;11707;50.830;4.364;2023-02-28T03:01:00;1.50;1.00
23079;DHT22;11707;50.830;4.364;2023-02-28T03:03:27;1.40;1.00
23079;DHT22;11707;50.830;4.364;2023-02-28T03:05:59;1.40;1.00
23079;DHT22;11707;50.830;4.364;2023-02-28T03:08:26;1.40;1.00
23079;DHT22;11707;50.830;4.364;2023-02-28T03:10:59;1.40;1.00
23079;DHT22;11707;50.830;4.364;2023-02-28T03:25:18;1.20;4.20
23079;DHT22;11707;50.830;4.364;2023-02-28T03:30:33;1.30;6.30
23079;DHT22;11707;50.830;4.364;2023-02-28T03:33:15;1.30;2.40
23079;DHT22;11707;50.830;4.364;2023-02-28T03:35:50;1.10;3.10
23079;DHT22;11707;50.830;4.364;2023-02-28T03:38:23;1.00;12.90
23079;DHT22;11707;50.830;4.364;2023-02-28T03:41:01;1.10;10.30
23079;DHT22;11707;50.830;4.364;2023-02-28T03:43:34;1.10;10.30
23079;DHT22;11707;50.830;4.364;2023-02-28T03:46:06;1.10;11.10
23079;DHT22;11707;50.830;4.364;2023-02-28T03:48:44;1.10;15.50
23079;DHT22;11707;50.830;4.364;2023-02-28T03:51:15;1.00;12.20
23079;DHT22;11707;50.830;4.364;2023-02-28T03:53:47;1.00;16.10
23079;DHT22;11707;50.830;4.364;2023-02-28T03:56:19;1.00;18.00
23079;DHT22;11707;50.830;4.364;2023-02-28T03:58:55;1.10;12.50
23079;DHT22;11707;50.830;4.364;2023-02-28T04:01:39;0.90;18.20
23079;DHT22;11707;50.830;4.364;2023-02-28T04:04:07;0.90;21.00
23079;DHT22;11707;50.830;4.364;2023-02-28T04:06:37;0.90;23.10
23079;DHT22;11707;50.830;4.364;2023-02-28T04:09:04;0.90;17.80
23079;DHT22;11707;50.830;4.364;2023-02-28T04:11:42;0.90;20.40
23079;DHT22;11707;50.830;4.364;2023-02-28T04:14:09;1.00;23.90
23079;DHT22;11707;50.830;4.364;2023-02-28T04:16:37;1.10;14.60
23079;DHT22;11707;50.830;4.364;2023-02-28T04:19:04;1.00;12.80
23079;DHT22;11707;50.830;4.364;2023-02-28T04:21:36;0.90;16.90
23079;DHT22;11707;50.830;4.364;2023-02-28T04:24:02;1.00;18.40
23079;DHT22;11707;50.830;4.364;2023-02-28T04:26:33;1.00;17.30
23079;DHT22;11707;50.830;4.364;2023-02-28T04:29:02;1.00;18.60
23079;DHT22;11707;50.830;4.364;2023-02-28T04:31:28;1.00;19.90
23079;DHT22;11707;50.830;4.364;2023-02-28T04:33:56;0.90;21.30
23079;DHT22;11707;50.830;4.364;2023-02-28T04:36:24;0.90;22.90
23079;DHT22;11707;50.830;4.364;2023-02-28T04:38:50;0.80;26.40
23079;DHT22;11707;50.830;4.364;2023-02-28T04:41:16;0.80;29.70
23079;DHT22;11707;50.830;4.364;2023-02-28T04:43:42;0.80;28.80
23079;DHT22;11707;50.830;4.364;2023-02-28T04:46:08;0.80;27.70
23079;DHT22;11707;50.830;4.364;2023-02-28T04:48:38;0.90;31.20
23079;DHT22;11707;50.830;4.364;2023-02-28T04:51:07;0.90;28.70
23079;DHT22;11707;50.830;4.364;2023-02-28T04:53:39;0.90;27.90
23079;DHT22;11707;50.830;4.364;2023-02-28T04:56:10;0.80;26.70
23079;DHT22;11707;50.830;4.364;2023-02-28T04:58:36;0.80;31.40
23079;DHT22;11707;50.830;4.364;2023-02-28T05:01:15;0.80;29.20
23079;DHT22;11707;50.830;4.364;2023-02-28T05:03:42;0.80;32.70
23079;DHT22;11707;50.830;4.364;2023-02-28T05:06:09;0.90;28.70
23079;DHT22;11707;50.830;4.364;2023-02-28T05:08:35;0.80;29.90
23079;DHT22;11707;50.830;4.364;2023-02-28T05:11:05;0.80;33.90
23079;DHT22;11707;50.830;4.364;2023-02-28T05:13:31;1.00;28.70
23079;DHT22;11707;50.830;4.364;2023-02-28T05:15:57;1.10;23.40
23079;DHT22;11707;50.830;4.364;2023-02-28T05:18:23;1.10;22.50
23079;DHT22;11707;50.830;4.364;2023-02-28T05:20:49;1.30;21.70
23079;DHT22;11707;50.830;4.364;2023-02-28T05:23:17;1.30;17.50
23079;DHT22;11707;50.830;4.364;2023-02-28T05:25:45;1.40;13.40
23079;DHT22;11707;50.830;4.364;2023-02-28T05:28:13;1.40;11.40
23079;DHT22;11707;50.830;4.364;2023-02-28T05:30:39;1.50;7.00
23079;DHT22;11707;50.830;4.364;2023-02-28T05:33:05;1.50;5.50
23079;DHT22;11707;50.830;4.364;2023-02-28T05:35:31;1.40;6.60
23079;DHT22;11707;50.830;4.364;2023-02-28T05:37:57;1.40;11.90
23079;DHT22;11707;50.830;4.364;2023-02-28T05:40:25;1.40;7.80
23079;DHT22;11707;50.830;4.364;2023-02-28T05:42:51;1.40;7.80
23079;DHT22;11707;50.830;4.364;2023-02-28T05:45:17;1.30;14.40
23079;DHT22;11707;50.830;4.364;2023-02-28T05:47:45;1.20;19.60
23079;DHT22;11707;50.830;4.364;2023-02-28T05:50:11;1.20;20.40
23079;DHT22;11707;50.830;4.364;2023-02-28T05:52:37;1.20;18.10
23079;DHT22;11707;50.830;4.364;2023-02-28T05:55:03;1.20;20.50
23079;DHT22;11707;50.830;4.364;2023-02-28T05:57:29;1.10;21.40
23079;DHT22;11707;50.830;4.364;2023-02-28T05:59:55;1.10;26.30
23079;DHT22;11707;50.830;4.364;2023-02-28T06:02:20;1.10;25.10
23079;DHT22;11707;50.830;4.364;2023-02-28T06:04:46;0.90;30.60
23079;DHT22;11707;50.830;4.364;2023-02-28T06:07:12;1.10;31.00
23079;DHT22;11707;50.830;4.364;2023-02-28T06:09:38;1.20;26.90
23079;DHT22;11707;50.830;4.364;2023-02-28T06:12:05;1.30;23.80
23079;DHT22;11707;50.830;4.364;2023-02-28T06:14:33;1.30;19.30
23079;DHT22;11707;50.830;4.364;2023-02-28T06:16:59;1.30;19.90
23079;DHT22;11707;50.830;4.364;2023-02-28T06:19:26;1.40;16.50
23079;DHT22;11707;50.830;4.364;2023-02-28T06:21:57;1.40;14.90
23079;DHT22;11707;50.830;4.364;2023-02-28T06:24:24;1.30;13.30
23079;DHT22;11707;50.830;4.364;2023-02-28T06:26:50;1.30;19.20
23079;DHT22;11707;50.830;4.364;2023-02-28T06:29:16;1.30;16.10
23079;DHT22;11707;50.830;4.364;2023-02-28T06:31:44;1.40;18.00
23079;DHT22;11707;50.830;4.364;2023-02-28T06:34:13;1.50;20.40
23079;DHT22;11707;50.830;4.364;2023-02-28T06:36:40;1.50;11.20
23079;DHT22;11707;50.830;4.364;2023-02-28T06:39:07;1.70;6.10
23079;DHT22;11707;50.830;4.364;2023-02-28T06:41:33;1.70;1.00
23079;DHT22;11707;50.830;4.364;2023-02-28T06:44:12;1.60;1.90
23079;DHT22;11707;50.830;4.364;2023-02-28T06:46:42;1.60;1.00
23079;DHT22;11707;50.830;4.364;2023-02-28T06:49:08;1.60;1.00
23079;DHT22;11707;50.830;4.364;2023-02-28T06:51:35;1.70;1.00
23079;DHT22;11707;50.830;4.364;2023-02-28T06:54:02;1.70;1.00
23079;DHT22;11707;50.830;4.364;2023-02-28T06:56:31;1.60;1.00
23079;DHT22;11707;50.830;4.364;2023-02-28T06:58:59;1.60;1.00
23079;DHT22;11707;50.830;4.364;2023-02-28T07:01:27;1.70;1.00
23079;DHT22;11707;50.830;4.364;2023-02-28T07:03:57;1.80;1.00
23079;DHT22;11707;50.830;4.364;2023-02-28T07:06:24;1.70;1.00
23079;DHT22;11707;50.830;4.364;2023-02-28T07:08:51;1.80;1.00
23079;DHT22;11707;50.830;4.364;2023-02-28T07:11:18;1.90;1.00
23079;DHT22;11707;50.830;4.364;2023-02-28T07:13:44;2.00;1.00
23079;DHT22;11707;50.830;4.364;2023-02-28T07:16:11;2.00;1.00
23079;DHT22;11707;50.830;4.364;2023-02-28T07:18:40;2.10;1.00
23079;DHT22;11707;50.830;4.364;2023-02-28T07:21:08;2.20;1.00
23079;DHT22;11707;50.830;4.364;2023-02-28T07:23:37;2.20;1.00
23079;DHT22;11707;50.830;4.364;2023-02-28T07:26:12;2.20;1.00
23079;DHT22;11707;50.830;4.364;2023-02-28T07:28:43;2.20;1.00
23079;DHT22;11707;50.830;4.364;2023-02-28T07:31:10;2.30;1.00
23079;DHT22;11707;50.830;4.364;2023-02-28T07:33:36;2.40;1.00
23079;DHT22;11707;50.830;4.364;2023-02-28T07:36:08;2.40;1.00
23079;DHT22;11707;50.830;4.364;2023-02-28T07:38:35;2.60;1.00
23079;DHT22;11707;50.830;4.364;2023-02-28T07:41:02;2.60;1.00
23079;DHT22;11707;50.830;4.364;2023-02-28T07:43:32;2.40;1.00
23079;DHT22;11707;50.830;4.364;2023-02-28T07:46:06;2.40;1.00
23079;DHT22;11707;50.830;4.364;2023-02-28T07:48:34;2.40;1.00
23079;DHT22;11707;50.830;4.364;2023-02-28T07:51:00;2.40;1.00
23079;DHT22;11707;50.830;4.364;2023-02-28T07:53:28;2.40;1.00
23079;DHT22;11707;50.830;4.364;2023-02-28T07:55:58;2.40;1.00
23079;DHT22;11707;50.830;4.364;2023-02-28T07:58:25;2.40;1.00
23079;DHT22;11707;50.830;4.364;2023-02-28T08:00:51;2.40;1.00
23079;DHT22;11707;50.830;4.364;2023-02-28T08:03:21;2.40;1.00
23079;DHT22;11707;50.830;4.364;2023-02-28T08:05:47;2.40;1.00
23079;DHT22;11707;50.830;4.364;2023-02-28T08:08:13;2.50;99.90
23079;DHT22;11707;50.830;4.364;2023-02-28T08:10:40;2.40;99.90
23079;DHT22;11707;50.830;4.364;2023-02-28T08:13:07;2.40;99.90
23079;DHT22;11707;50.830;4.364;2023-02-28T08:15:36;2.40;99.90
23079;DHT22;11707;50.830;4.364;2023-02-28T08:18:02;2.40;99.90
23079;DHT22;11707;50.830;4.364;2023-02-28T08:20:28;2.50;99.90
23079;DHT22;11707;50.830;4.364;2023-02-28T08:22:53;2.70;99.90
23079;DHT22;11707;50.830;4.364;2023-02-28T08:25:19;2.70;99.90
23079;DHT22;11707;50.830;4.364;2023-02-28T08:27:45;2.70;99.90
23079;DHT22;11707;50.830;4.364;2023-02-28T08:30:12;2.70;99.90
23079;DHT22;11707;50.830;4.364;2023-02-28T08:32:39;2.80;99.90
23079;DHT22;11707;50.830;4.364;2023-02-28T08:35:06;2.80;94.00
23079;DHT22;11707;50.830;4.364;2023-02-28T08:37:31;2.90;1.00
23079;DHT22;11707;50.830;4.364;2023-02-28T08:39:57;2.70;1.00
23079;DHT22;11707;50.830;4.364;2023-02-28T08:42:23;2.90;1.00
23079;DHT22;11707;50.830;4.364;2023-02-28T08:44:49;2.90;1.00
23079;DHT22;11707;50.830;4.364;2023-02-28T08:47:15;2.70;99.90
23079;DHT22;11707;50.830;4.364;2023-02-28T08:49:41;2.70;99.90
23079;DHT22;11707;50.830;4.364;2023-02-28T08:52:09;2.70;1.00
23079;DHT22;11707;50.830;4.364;2023-02-28T08:54:35;2.70;1.00
23079;DHT22;11707;50.830;4.364;2023-02-28T08:57:03;2.70;1.00
23079;DHT22;11707;50.830;4.364;2023-02-28T08:59:29;2.90;1.00
23079;DHT22;11707;50.830;4.364;2023-02-28T09:01:55;2.70;99.90
23079;DHT22;11707;50.830;4.364;2023-02-28T09:04:21;2.70;99.90
23079;DHT22;11707;50.830;4.364;2023-02-28T09:06:47;2.90;99.90
23079;DHT22;11707;50.830;4.364;2023-02-28T09:09:14;2.90;99.90
23079;DHT22;11707;50.830;4.364;2023-02-28T09:11:43;2.80;99.90
23079;DHT22;11707;50.830;4.364;2023-02-28T09:14:08;2.70;99.90
23079;DHT22;11707;50.830;4.364;2023-02-28T09:16:35;2.60;99.90
23079;DHT22;11707;50.830;4.364;2023-02-28T09:19:02;2.70;99.90
23079;DHT22;11707;50.830;4.364;2023-02-28T09:21:30;2.90;1.00
23079;DHT22;11707;50.830;4.364;2023-02-28T09:23:56;2.80;25.30
23079;DHT22;11707;50.830;4.364;2023-02-28T09:26:24;2.80;99.90
23079;DHT22;11707;50.830;4.364;2023-02-28T09:28:52;2.80;99.90
23079;DHT22;11707;50.830;4.364;2023-02-28T09:31:21;2.80;99.90
23079;DHT22;11707;50.830;4.364;2023-02-28T09:33:48;3.00;99.90
23079;DHT22;11707;50.830;4.364;2023-02-28T09:36:14;3.20;82.90
23079;DHT22;11707;50.830;4.364;2023-02-28T09:38:40;3.40;99.90
23079;DHT22;11707;50.830;4.364;2023-02-28T09:41:32;3.60;99.90
23079;DHT22;11707;50.830;4.364;2023-02-28T09:44:04;3.60;1.00
23079;DHT22;11707;50.830;4.364;2023-02-28T09:46:40;3.60;99.90
23079;DHT22;11707;50.830;4.364;2023-02-28T09:49:23;3.60;99.90
23079;DHT22;11707;50.830;4.364;2023-02-28T09:52:02;3.80;83.80
23079;DHT22;11707;50.830;4.364;2023-02-28T09:54:31;3.80;99.90
23079;DHT22;11707;50.830;4.364;2023-02-28T09:57:01;3.80;1.00
23079;DHT22;11707;50.830;4.364;2023-02-28T10:00:02;3.60;1.00
23079;DHT22;11707;50.830;4.364;2023-02-28T10:05:12;3.80;99.90
23079;DHT22;11707;50.830;4.364;2023-02-28T10:12:47;3.80;99.90
23079;DHT22;11707;50.830;4.364;2023-02-28T10:15:15;3.80;99.90
23079;DHT22;11707;50.830;4.364;2023-02-28T10:17:47;4.00;99.90
23079;DHT22;11707;50.830;4.364;2023-02-28T10:20:21;3.90;1.00
23079;DHT22;11707;50.830;4.364;2023-02-28T10:25:22;3.80;99.90
23079;DHT22;11707;50.830;4.364;2023-02-28T10:27:49;3.80;99.90
23079;DHT22;11707;50.830;4.364;2023-02-28T10:30:15;3.90;99.90
23079;DHT22;11707;50.830;4.364;2023-02-28T10:32:50;4.00;99.90
23079;DHT22;11707;50.830;4.364;2023-02-28T10:35:21;4.00;99.90
23079;DHT22;11707;50.830;4.364;2023-02-28T10:37:53;4.30;99.90
23079;DHT22;11707;50.830;4.364;2023-02-28T10:45:29;4.60;1.00
23079;DHT22;11707;50.830;4.364;2023-02-28T10:56:03;4.40;99.90
23079;DHT22;11707;50.830;4.364;2023-02-28T10:58:44;4.40;99.90
23079;DHT22;11707;50.830;4.364;2023-02-28T11:04:00;4.50;99.90
23079;DHT22;11707;50.830;4.364;2023-02-28T11:06:30;4.20;99.90
23079;DHT22;11707;50.830;4.364;2023-02-28T11:09:03;4.30;99.90
23079;DHT22;11707;50.830;4.364;2023-02-28T11:11:31;4.30;99.90
23079;DHT22;11707;50.830;4.364;2023-02-28T11:14:16;4.30;99.90
23079;DHT22;11707;50.830;4.364;2023-02-28T11:16:43;4.10;99.90
23079;DHT22;11707;50.830;4.364;2023-02-28T11:19:31;4.20;99.90
23079;DHT22;11707;50.830;4.364;2023-02-28T11:22:04;4.20;99.90
23079;DHT22;11707;50.830;4.364;2023-02-28T11:24:47;4.30;99.90
23079;DHT22;11707;50.830;4.364;2023-02-28T11:30:33;4.10;99.90
23079;DHT22;11707;50.830;4.364;2023-02-28T11:33:32;4.20;99.90
23079;DHT22;11707;50.830;4.364;2023-02-28T11:36:09;4.50;99.90
23079;DHT22;11707;50.830;4.364;2023-02-28T11:38:36;4.30;99.90
23079;DHT22;11707;50.830;4.364;2023-02-28T11:41:19;4.10;99.90
23079;DHT22;11707;50.830;4.364;2023-02-28T11:46:35;4.60;99.90
23079;DHT22;11707;50.830;4.364;2023-02-28T11:54:50;4.60;99.90
23079;DHT22;11707;50.830;4.364;2023-02-28T12:00:25;4.50;99.90
23079;DHT22;11707;50.830;4.364;2023-02-28T12:03:20;4.40;99.90
23079;DHT22;11707;50.830;4.364;2023-02-28T12:08:42;4.50;99.90
23079;DHT22;11707;50.830;4.364;2023-02-28T12:17:03;4.50;99.90
23079;DHT22;11707;50.830;4.364;2023-02-28T12:27:41;4.80;99.90
23079;DHT22;11707;50.830;4.364;2023-02-28T12:30:22;4.90;99.90
23079;DHT22;11707;50.830;4.364;2023-02-28T12:33:13;5.00;94.60
23079;DHT22;11707;50.830;4.364;2023-02-28T12:35:55;5.00;63.00
23079;DHT22;11707;50.830;4.364;2023-02-28T12:38:39;5.10;57.20
23079;DHT22;11707;50.830;4.364;2023-02-28T12:41:19;5.00;47.70
23079;DHT22;11707;50.830;4.364;2023-02-28T12:43:55;5.10;34.50
23079;DHT22;11707;50.830;4.364;2023-02-28T12:46:38;5.10;22.20
23079;DHT22;11707;50.830;4.364;2023-02-28T12:49:15;5.20;5.90
23079;DHT22;11707;50.830;4.364;2023-02-28T12:51:41;5.20;8.00
23079;DHT22;11707;50.830;4.364;2023-02-28T12:57:24;4.90;17.90
23079;DHT22;11707;50.830;4.364;2023-02-28T13:00:00;5.00;18.00
23079;DHT22;11707;50.830;4.364;2023-02-28T13:03:28;5.10;23.80
23079;DHT22;11707;50.830;4.364;2023-02-28T13:10:53;5.30;1.00
23079;DHT22;11707;50.830;4.364;2023-02-28T13:13:24;5.30;1.00
23079;DHT22;11707;50.830;4.364;2023-02-28T13:16:06;5.30;1.00
23079;DHT22;11707;50.830;4.364;2023-02-28T13:18:41;5.30;1.00
23079;DHT22;11707;50.830;4.364;2023-02-28T13:21:42;5.30;1.00
23079;DHT22;11707;50.830;4.364;2023-02-28T13:24:08;5.40;1.00
23079;DHT22;11707;50.830;4.364;2023-02-28T13:37:35;5.10;1.00
23079;DHT22;11707;50.830;4.364;2023-02-28T13:42:47;5.30;1.00
23079;DHT22;11707;50.830;4.364;2023-02-28T13:47:56;5.40;1.00
23079;DHT22;11707;50.830;4.364;2023-02-28T13:50:33;5.30;1.00
23079;DHT22;11707;50.830;4.364;2023-02-28T13:55:52;6.20;1.00
23079;DHT22;11707;50.830;4.364;2023-02-28T14:01:17;8.60;99.90
23079;DHT22;11707;50.830;4.364;2023-02-28T14:06:40;9.20;99.90
23079;DHT22;11707;50.830;4.364;2023-02-28T14:11:51;10.00;99.90
23079;DHT22;11707;50.830;4.364;2023-02-28T14:17:12;11.00;99.90
23079;DHT22;11707;50.830;4.364;2023-02-28T14:19:40;10.80;99.90
23079;DHT22;11707;50.830;4.364;2023-02-28T14:27:37;10.20;99.90
23079;DHT22;11707;50.830;4.364;2023-02-28T14:38:21;9.30;99.90
23079;DHT22;11707;50.830;4.364;2023-02-28T14:40:52;10.50;99.90
23079;DHT22;11707;50.830;4.364;2023-02-28T14:43:26;10.90;99.90
23079;DHT22;11707;50.830;4.364;2023-02-28T14:46:00;10.10;99.90
23079;DHT22;11707;50.830;4.364;2023-02-28T14:48:29;9.70;99.90
23079;DHT22;11707;50.830;4.364;2023-02-28T14:51:00;9.00;99.90
23079;DHT22;11707;50.830;4.364;2023-02-28T14:53:30;7.80;99.90
23079;DHT22;11707;50.830;4.364;2023-02-28T14:56:00;6.80;99.90
23079;DHT22;11707;50.830;4.364;2023-02-28T14:58:31;6.50;99.90
23079;DHT22;11707;50.830;4.364;2023-02-28T15:01:01;5.80;99.90
23079;DHT22;11707;50.830;4.364;2023-02-28T15:03:39;5.70;99.90
23079;DHT22;11707;50.830;4.364;2023-02-28T15:06:13;5.70;99.90
23079;DHT22;11707;50.830;4.364;2023-02-28T15:08:39;5.60;99.90
23079;DHT22;11707;50.830;4.364;2023-02-28T15:11:08;5.70;99.90
23079;DHT22;11707;50.830;4.364;2023-02-28T15:21:38;5.20;99.90
23079;DHT22;11707;50.830;4.364;2023-02-28T15:24:05;5.10;99.90
23079;DHT22;11707;50.830;4.364;2023-02-28T15:26:44;5.10;99.90
23079;DHT22;11707;50.830;4.364;2023-02-28T15:29:17;5.20;99.90
23079;DHT22;11707;50.830;4.364;2023-02-28T15:32:05;5.20;99.90
23079;DHT22;11707;50.830;4.364;2023-02-28T15:43:14;5.20;99.90
23079;DHT22;11707;50.830;4.364;2023-02-28T15:45:44;5.10;99.90
23079;DHT22;11707;50.830;4.364;2023-02-28T15:51:25;5.30;99.90
23079;DHT22;11707;50.830;4.364;2023-02-28T15:53:59;5.20;99.90
23079;DHT22;11707;50.830;4.364;2023-02-28T15:56:45;5.20;99.90
23079;DHT22;11707;50.830;4.364;2023-02-28T15:59:28;5.20;99.90
23079;DHT22;11707;50.830;4.364;2023-02-28T16:02:14;5.30;99.90
23079;DHT22;11707;50.830;4.364;2023-02-28T16:05:00;5.30;99.90
23079;DHT22;11707;50.830;4.364;2023-02-28T16:07:27;5.30;99.90
23079;DHT22;11707;50.830;4.364;2023-02-28T16:09:55;5.30;99.90
23079;DHT22;11707;50.830;4.364;2023-02-28T16:12:28;5.10;99.90
23079;DHT22;11707;50.830;4.364;2023-02-28T16:14:56;5.10;99.90
23079;DHT22;11707;50.830;4.364;2023-02-28T16:17:26;5.00;99.90
23079;DHT22;11707;50.830;4.364;2023-02-28T16:19:52;5.10;99.90
23079;DHT22;11707;50.830;4.364;2023-02-28T16:22:18;5.00;1.00
23079;DHT22;11707;50.830;4.364;2023-02-28T16:24:44;5.00;1.00
23079;DHT22;11707;50.830;4.364;2023-02-28T16:27:35;5.10;1.00
23079;DHT22;11707;50.830;4.364;2023-02-28T16:30:04;5.10;1.00
23079;DHT22;11707;50.830;4.364;2023-02-28T16:32:32;5.10;1.00
23079;DHT22;11707;50.830;4.364;2023-02-28T16:35:00;4.90;1.00
23079;DHT22;11707;50.830;4.364;2023-02-28T16:37:27;4.80;1.00
23079;DHT22;11707;50.830;4.364;2023-02-28T16:39:53;4.80;1.00
23079;DHT22;11707;50.830;4.364;2023-02-28T16:42:24;4.90;1.00
23079;DHT22;11707;50.830;4.364;2023-02-28T16:44:54;5.00;1.00
23079;DHT22;11707;50.830;4.364;2023-02-28T16:47:20;4.80;1.00
23079;DHT22;11707;50.830;4.364;2023-02-28T16:49:46;4.90;1.00
23079;DHT22;11707;50.830;4.364;2023-02-28T16:52:13;4.80;1.00
23079;DHT22;11707;50.830;4.364;2023-02-28T16:54:40;4.80;1.00
23079;DHT22;11707;50.830;4.364;2023-02-28T16:57:11;4.70;1.00
23079;DHT22;11707;50.830;4.364;2023-02-28T16:59:40;4.60;1.00
23079;DHT22;11707;50.830;4.364;2023-02-28T17:02:14;4.50;1.00
23079;DHT22;11707;50.830;4.364;2023-02-28T17:04:42;4.60;1.00
23079;DHT22;11707;50.830;4.364;2023-02-28T17:07:13;4.60;1.00
23079;DHT22;11707;50.830;4.364;2023-02-28T17:09:39;4.50;1.00
23079;DHT22;11707;50.830;4.364;2023-02-28T17:12:06;4.40;1.00
23079;DHT22;11707;50.830;4.364;2023-02-28T17:14:32;4.50;1.00
23079;DHT22;11707;50.830;4.364;2023-02-28T17:16:57;4.40;1.00
23079;DHT22;11707;50.830;4.364;2023-02-28T17:19:23;4.40;1.00
23079;DHT22;11707;50.830;4.364;2023-02-28T17:21:49;4.50;1.00
23079;DHT22;11707;50.830;4.364;2023-02-28T17:24:17;4.50;1.00
23079;DHT22;11707;50.830;4.364;2023-02-28T17:26:43;4.50;1.00
23079;DHT22;11707;50.830;4.364;2023-02-28T17:29:17;4.50;1.00
23079;DHT22;11707;50.830;4.364;2023-02-28T17:31:43;4.40;1.00
23079;DHT22;11707;50.830;4.364;2023-02-28T17:34:09;4.40;1.00
23079;DHT22;11707;50.830;4.364;2023-02-28T17:36:35;4.50;1.00
23079;DHT22;11707;50.830;4.364;2023-02-28T17:39:03;4.50;1.00
23079;DHT22;11707;50.830;4.364;2023-02-28T17:41:29;4.40;1.00
23079;DHT22;11707;50.830;4.364;2023-02-28T17:43:56;4.40;1.00
23079;DHT22;11707;50.830;4.364;2023-02-28T17:46:23;4.30;2.10
23079;DHT22;11707;50.830;4.364;2023-02-28T17:48:51;4.30;8.50
23079;DHT22;11707;50.830;4.364;2023-02-28T17:51:19;4.30;11.60
23079;DHT22;11707;50.830;4.364;2023-02-28T17:53:45;4.20;16.30
23079;DHT22;11707;50.830;4.364;2023-02-28T17:56:22;4.40;17.50
23079;DHT22;11707;50.830;4.364;2023-02-28T17:58:49;4.40;23.70
23079;DHT22;11707;50.830;4.364;2023-02-28T18:01:15;4.50;21.30
23079;DHT22;11707;50.830;4.364;2023-02-28T18:03:40;4.60;20.00
23079;DHT22;11707;50.830;4.364;2023-02-28T18:06:09;4.50;18.70
23079;DHT22;11707;50.830;4.364;2023-02-28T18:08:38;4.50;21.30
23079;DHT22;11707;50.830;4.364;2023-02-28T18:11:04;4.40;28.80
23079;DHT22;11707;50.830;4.364;2023-02-28T18:13:43;4.40;39.50
23079;DHT22;11707;50.830;4.364;2023-02-28T18:16:09;4.40;56.70
23079;DHT22;11707;50.830;4.364;2023-02-28T18:18:35;4.50;58.50
23079;DHT22;11707;50.830;4.364;2023-02-28T18:21:04;4.40;63.30
23079;DHT22;11707;50.830;4.364;2023-02-28T18:23:31;4.50;76.10
23079;DHT22;11707;50.830;4.364;2023-02-28T18:25:59;4.40;67.60
23079;DHT22;11707;50.830;4.364;2023-02-28T18:28:24;4.20;77.70
23079;DHT22;11707;50.830;4.364;2023-02-28T18:30:50;4.20;99.90
23079;DHT22;11707;50.830;4.364;2023-02-28T18:33:18;4.20;99.90
23079;DHT22;11707;50.830;4.364;2023-02-28T18:35:45;4.30;99.90
23079;DHT22;11707;50.830;4.364;2023-02-28T18:38:22;4.30;99.90
23079;DHT22;11707;50.830;4.364;2023-02-28T18:40:59;4.30;99.90
23079;DHT22;11707;50.830;4.364;2023-02-28T18:43:26;4.20;99.90
23079;DHT22;11707;50.830;4.364;2023-02-28T18:45:52;4.20;99.90
23079;DHT22;11707;50.830;4.364;2023-02-28T18:48:20;4.20;99.90
23079;DHT22;11707;50.830;4.364;2023-02-28T18:50:51;4.10;99.90
23079;DHT22;11707;50.830;4.364;2023-02-28T18:53:17;4.20;99.90
23079;DHT22;11707;50.830;4.364;2023-02-28T18:55:44;4.30;99.90
23079;DHT22;11707;50.830;4.364;2023-02-28T18:58:09;4.30;99.90
23079;DHT22;11707;50.830;4.364;2023-02-28T19:00:36;4.30;99.90